createdAt,value
2022-12-24T00:01:06.351Z,0.95
2022-12-24T00:03:34.130Z,0.85
2022-12-24T00:06:05.297Z,0.90
2022-12-24T00:08:32.821Z,0.68
2022-12-24T00:11:01.737Z,1.00
2022-12-24T00:13:29.318Z,1.00
2022-12-24T00:15:56.877Z,1.27
2022-12-24T00:18:24.463Z,0.85
2022-12-24T00:20:52.480Z,0.93
2022-12-24T00:23:20.448Z,0.70
2022-12-24T00:25:48.160Z,0.70
2022-12-24T00:28:18.090Z,1.33
2022-12-24T00:30:45.744Z,1.02
2022-12-24T00:33:13.293Z,1.52
2022-12-24T00:35:41.552Z,0.93
2022-12-24T00:38:09.557Z,1.10
2022-12-24T00:40:37.135Z,1.02
2022-12-24T00:43:04.935Z,0.75
2022-12-24T00:45:33.809Z,0.98
2022-12-24T00:48:01.441Z,0.77
2022-12-24T00:50:29.013Z,0.95
2022-12-24T00:52:56.663Z,0.90
2022-12-24T00:55:24.288Z,0.75
2022-12-24T00:57:51.835Z,1.38
2022-12-24T01:00:19.934Z,1.08
2022-12-24T01:02:49.104Z,1.17
2022-12-24T01:05:20.549Z,0.70
2022-12-24T01:07:49.298Z,1.00
2022-12-24T01:10:20.246Z,0.75
2022-12-24T01:12:48.118Z,0.70
2022-12-24T01:15:18.403Z,0.95
2022-12-24T01:17:45.916Z,0.73
2022-12-24T01:20:17.977Z,1.00
2022-12-24T01:22:45.824Z,1.42
2022-12-24T01:25:13.855Z,1.05
2022-12-24T01:27:41.512Z,0.70
2022-12-24T01:30:14.197Z,0.93
2022-12-24T01:35:10.638Z,0.80
2022-12-24T01:37:39.776Z,1.50
2022-12-24T01:40:27.130Z,0.82
2022-12-24T01:43:12.474Z,0.88
2022-12-24T01:45:49.521Z,1.00
2022-12-24T01:48:29.814Z,1.33
2022-12-24T01:51:03.516Z,1.00
2022-12-24T01:53:35.620Z,0.80
2022-12-24T01:56:04.476Z,0.80
2022-12-24T01:58:34.480Z,1.00
2022-12-24T02:01:02.252Z,1.20
2022-12-24T02:03:30.041Z,0.70
2022-12-24T02:06:00.467Z,1.08
2022-12-24T02:08:39.821Z,0.90
2022-12-24T02:11:13.600Z,1.08
2022-12-24T02:13:42.834Z,1.15
2022-12-24T02:16:22.747Z,1.38
2022-12-24T02:19:00.715Z,1.25
2022-12-24T02:21:54.555Z,1.15
2022-12-24T02:24:50.251Z,1.00
2022-12-24T02:27:27.910Z,1.13
2022-12-24T02:30:04.684Z,1.20
2022-12-24T02:32:38.327Z,1.80
2022-12-24T02:35:11.640Z,1.13
2022-12-24T02:37:43.466Z,1.83
2022-12-24T02:40:16.756Z,1.30
2022-12-24T02:42:49.321Z,0.88
2022-12-24T02:45:21.856Z,3.08
2022-12-24T02:47:51.024Z,1.67
2022-12-24T02:50:19.368Z,2.22
2022-12-24T02:52:48.082Z,1.50
2022-12-24T02:55:18.838Z,1.83
2022-12-24T02:58:11.441Z,1.50
2022-12-24T03:00:57.261Z,1.20
2022-12-24T03:03:37.717Z,1.30
2022-12-24T03:06:14.819Z,1.58
2022-12-24T03:08:50.188Z,1.52
2022-12-24T03:11:19.556Z,0.98
2022-12-24T03:13:49.452Z,1.23
2022-12-24T03:16:24.714Z,1.77
2022-12-24T03:18:54.313Z,1.60
2022-12-24T03:21:27.017Z,2.35
2022-12-24T03:26:23.394Z,1.13
2022-12-24T03:28:51.191Z,1.80
2022-12-24T03:31:20.584Z,1.73
2022-12-24T03:33:48.557Z,1.95
2022-12-24T05:24:54.806Z,2.08
2022-12-24T05:27:38.753Z,1.58
2022-12-24T05:30:10.929Z,1.50
2022-12-24T05:33:03.687Z,1.63
2022-12-24T05:35:39.273Z,1.38
2022-12-24T05:38:22.016Z,1.85
2022-12-24T05:41:15.370Z,1.50
2022-12-24T05:44:01.609Z,1.88
2022-12-24T05:46:36.796Z,1.80
2022-12-24T05:49:26.457Z,2.13
2022-12-24T05:55:31.683Z,1.42
2022-12-24T05:58:06.649Z,1.77
2022-12-24T06:01:07.031Z,1.80
2022-12-24T06:03:44.435Z,1.48
2022-12-24T06:06:26.588Z,2.10
2022-12-24T06:09:08.021Z,1.23
2022-12-24T06:11:57.398Z,1.77
2022-12-24T06:14:41.212Z,1.63
2022-12-24T06:17:22.090Z,2.35
2022-12-24T06:20:33.925Z,1.77
2022-12-24T06:26:25.719Z,1.98
2022-12-24T06:29:18.393Z,1.60
2022-12-24T06:31:59.208Z,1.85
2022-12-24T06:34:41.675Z,2.03
2022-12-24T06:37:30.652Z,1.88
2022-12-24T06:40:13.784Z,2.05
2022-12-24T07:00:39.976Z,2.00
2022-12-24T07:03:07.543Z,2.03
2022-12-24T07:05:36.428Z,1.60
2022-12-24T07:08:04.073Z,2.13
2022-12-24T07:10:31.681Z,2.40
2022-12-24T07:12:59.219Z,1.65
2022-12-24T07:15:26.915Z,1.48
2022-12-24T07:17:54.543Z,2.20
2022-12-24T07:20:22.259Z,1.23
2022-12-24T07:22:52.839Z,1.80
2022-12-24T07:33:12.612Z,2.80
2022-12-24T07:38:18.771Z,2.22
2022-12-24T07:40:47.752Z,1.70
2022-12-24T07:43:15.309Z,1.67
2022-12-24T07:45:43.051Z,1.48
2022-12-24T07:48:10.560Z,1.92
2022-12-24T07:50:38.109Z,15.10
2022-12-24T07:53:05.809Z,16.33
2022-12-24T07:55:34.695Z,5.00
2022-12-24T07:58:02.198Z,2.20
2022-12-24T08:00:29.724Z,1.92
2022-12-24T08:02:58.620Z,1.80
2022-12-24T08:05:26.589Z,2.13
2022-12-24T08:07:54.118Z,2.28
2022-12-24T08:10:21.841Z,2.28
2022-12-24T08:12:50.708Z,2.00
2022-12-24T08:15:18.460Z,2.30
2022-12-24T08:17:46.021Z,2.05
2022-12-24T08:20:13.703Z,2.67
2022-12-24T08:22:41.288Z,2.55
2022-12-24T08:25:10.349Z,2.10
2022-12-24T08:27:37.956Z,2.30
2022-12-24T08:30:08.630Z,2.70
2022-12-24T08:32:36.236Z,2.40
2022-12-24T08:35:04.055Z,2.88
2022-12-24T08:37:31.532Z,2.30
2022-12-24T08:39:59.146Z,2.10
2022-12-24T08:42:26.746Z,1.98
2022-12-24T08:44:56.620Z,2.30
2022-12-24T08:47:25.501Z,1.80
2022-12-24T08:49:52.986Z,1.80
2022-12-24T08:52:20.586Z,2.58
2022-12-24T08:54:48.074Z,2.22
2022-12-24T08:57:15.681Z,2.30
2022-12-24T08:59:43.241Z,2.05
2022-12-24T09:02:10.939Z,2.95
2022-12-24T09:04:41.042Z,1.92
2022-12-24T09:07:08.924Z,1.75
2022-12-24T09:09:38.220Z,2.10
2022-12-24T09:12:06.988Z,2.13
2022-12-24T09:14:34.560Z,2.58
2022-12-24T09:17:02.160Z,2.83
2022-12-24T09:19:29.969Z,3.58
2022-12-24T09:21:58.881Z,3.13
2022-12-24T09:24:26.437Z,4.55
2022-12-24T09:26:57.712Z,2.42
2022-12-24T09:29:25.918Z,3.10
2022-12-24T09:31:55.130Z,3.60
2022-12-24T09:34:29.935Z,2.83
2022-12-24T09:37:00.656Z,2.22
2022-12-24T09:39:28.138Z,2.45
2022-12-24T09:42:09.080Z,2.53
2022-12-24T09:44:44.455Z,2.80
2022-12-24T09:47:22.247Z,2.60
2022-12-24T09:49:54.223Z,2.75
2022-12-24T09:52:31.671Z,3.50
2022-12-24T09:55:05.663Z,2.30
2022-12-24T09:57:38.369Z,2.10
2022-12-24T10:02:34.551Z,2.22
2022-12-24T10:05:02.087Z,2.30
2022-12-24T10:07:41.349Z,2.53
2022-12-24T10:10:19.831Z,2.30
2022-12-24T10:12:54.820Z,2.20
2022-12-24T10:15:29.384Z,2.50
2022-12-24T10:18:09.921Z,1.70
2022-12-24T10:20:46.209Z,2.28
2022-12-24T10:23:22.106Z,2.33
2022-12-24T10:25:57.234Z,1.75
2022-12-24T10:28:31.036Z,2.33
2022-12-24T10:31:03.764Z,1.60
2022-12-24T10:36:06.735Z,2.38
2022-12-24T10:38:38.859Z,1.80
2022-12-24T10:41:06.865Z,2.30
2022-12-24T10:43:34.647Z,1.83
2022-12-24T10:46:06.324Z,2.25
2022-12-24T10:48:48.303Z,1.70
2022-12-24T10:51:23.026Z,1.92
2022-12-24T10:53:57.348Z,2.40
2022-12-24T10:56:24.918Z,2.53
2022-12-24T10:58:54.533Z,2.17
2022-12-24T11:01:42.554Z,2.42
2022-12-24T11:04:17.315Z,1.73
2022-12-24T11:06:54.539Z,2.00
2022-12-24T11:09:25.776Z,2.17
2022-12-24T11:11:53.827Z,2.08
2022-12-24T11:14:22.376Z,1.73
2022-12-24T11:16:53.698Z,1.73
2022-12-24T11:19:29.309Z,1.73
2022-12-24T11:22:04.475Z,1.50
2022-12-24T11:24:35.186Z,2.05
2022-12-24T11:27:30.241Z,1.70
2022-12-24T11:30:29.927Z,2.55
2022-12-24T11:33:19.638Z,2.60
2022-12-24T11:35:50.833Z,2.20
2022-12-24T11:38:22.505Z,2.13
2022-12-24T11:40:58.366Z,2.05
2022-12-24T11:43:44.226Z,2.80
2022-12-24T11:46:35.759Z,2.38
2022-12-24T11:49:16.370Z,2.67
2022-12-24T11:52:03.622Z,2.13
2022-12-24T11:54:35.243Z,2.17
2022-12-24T11:57:04.896Z,2.80
2022-12-24T11:59:37.599Z,2.42
2022-12-24T12:04:45.148Z,2.00
2022-12-24T12:07:16.047Z,2.67
2022-12-24T12:09:47.259Z,2.20
2022-12-24T12:12:19.956Z,2.15
2022-12-24T12:17:31.196Z,2.05
2022-12-24T12:20:04.034Z,2.15
2022-12-24T12:22:39.258Z,1.60
2022-12-24T12:25:18.547Z,3.05
2022-12-24T12:27:50.637Z,2.30
2022-12-24T12:30:20.792Z,2.90
2022-12-24T12:32:54.528Z,3.08
2022-12-24T12:35:26.790Z,2.40
2022-12-24T12:37:58.893Z,1.80
2022-12-24T12:40:40.166Z,2.53
2022-12-24T12:43:24.063Z,2.20
2022-12-24T12:45:58.193Z,2.42
2022-12-24T12:48:43.646Z,2.53
2022-12-24T12:51:21.452Z,2.42
2022-12-24T12:54:01.556Z,2.25
2022-12-24T12:56:32.217Z,1.80
2022-12-24T12:59:05.073Z,2.03
2022-12-24T13:01:43.924Z,2.55
2022-12-24T13:04:52.066Z,1.80
2022-12-24T13:07:43.562Z,2.88
2022-12-24T13:10:32.047Z,1.88
2022-12-24T13:13:20.382Z,2.45
2022-12-24T13:16:14.436Z,1.90
2022-12-24T13:18:52.312Z,2.25
2022-12-24T13:21:23.457Z,2.58
2022-12-24T13:23:51.366Z,2.50
2022-12-24T13:26:19.578Z,2.67
2022-12-24T13:28:47.109Z,2.78
2022-12-24T13:31:29.968Z,2.10
2022-12-24T13:34:03.439Z,2.30
2022-12-24T13:37:03.867Z,2.05
2022-12-24T13:40:17.844Z,3.03
2022-12-24T13:43:07.104Z,1.73
2022-12-24T13:45:48.007Z,2.50
2022-12-24T13:48:29.812Z,2.63
2022-12-24T13:51:00.337Z,2.55
2022-12-24T13:53:32.461Z,2.95
2022-12-24T13:56:07.520Z,2.83
2022-12-24T13:58:37.408Z,2.20
2022-12-24T14:01:09.558Z,2.70
2022-12-24T14:03:46.277Z,3.15
2022-12-24T14:06:24.038Z,2.55
2022-12-24T14:08:55.576Z,2.90
2022-12-24T14:11:25.366Z,2.47
2022-12-24T14:14:12.560Z,1.48
2022-12-24T14:16:46.680Z,2.88
2022-12-24T14:19:20.161Z,2.40
2022-12-24T14:21:55.821Z,3.00
2022-12-24T14:24:26.334Z,3.05
2022-12-24T14:26:58.019Z,2.83
2022-12-24T14:29:29.934Z,3.25
2022-12-24T14:32:00.014Z,5.13
2022-12-24T14:34:29.492Z,3.83
2022-12-24T14:36:57.591Z,4.82
2022-12-24T14:39:29.376Z,4.60
2022-12-24T14:42:05.618Z,5.83
2022-12-24T14:44:42.503Z,6.32
2022-12-24T14:47:21.997Z,6.03
2022-12-24T14:50:17.011Z,4.80
2022-12-24T14:53:09.375Z,3.90
2022-12-24T14:55:42.508Z,3.25
2022-12-24T14:58:25.728Z,3.13
2022-12-24T15:00:55.654Z,3.10
2022-12-24T15:03:25.267Z,3.22
2022-12-24T15:05:56.461Z,4.25
2022-12-24T15:08:30.364Z,3.17
2022-12-24T15:11:02.681Z,3.90
2022-12-24T15:13:36.718Z,3.38
2022-12-24T15:16:06.117Z,3.60
2022-12-24T15:18:37.970Z,3.42
2022-12-24T15:21:14.686Z,3.97
2022-12-24T15:23:46.965Z,3.42
2022-12-24T15:26:23.363Z,4.13
2022-12-24T15:28:55.113Z,4.45
2022-12-24T15:31:27.595Z,3.25
2022-12-24T15:33:56.796Z,4.28
2022-12-24T15:47:09.711Z,4.47
2022-12-24T15:49:37.953Z,3.92
2022-12-24T15:52:07.300Z,4.43
2022-12-24T15:54:35.247Z,5.43
2022-12-24T15:57:14.478Z,4.20
2022-12-24T15:59:42.112Z,5.40
2022-12-24T16:02:33.928Z,5.35
2022-12-24T16:05:31.682Z,5.75
2022-12-24T16:08:10.922Z,6.15
2022-12-24T16:10:41.763Z,6.68
2022-12-24T16:13:15.745Z,5.55
2022-12-24T16:15:48.315Z,5.32
2022-12-24T16:18:24.884Z,4.93
2022-12-24T16:20:54.134Z,5.68
2022-12-24T16:23:24.706Z,6.97
2022-12-24T16:25:53.750Z,7.18
2022-12-24T16:28:23.240Z,7.40
2022-12-24T16:30:51.208Z,7.97
2022-12-24T16:33:21.767Z,7.05
2022-12-24T16:35:49.497Z,6.10
2022-12-24T16:38:17.324Z,6.18
2022-12-24T16:40:45.143Z,4.78
2022-12-24T16:43:30.461Z,6.13
2022-12-24T16:46:02.037Z,5.38
2022-12-24T16:48:31.275Z,3.65
2022-12-24T16:50:58.732Z,4.38
2022-12-24T16:53:26.269Z,3.92
2022-12-24T16:55:53.781Z,3.92
2022-12-24T16:58:22.149Z,3.90
2022-12-24T17:00:49.673Z,4.35
2022-12-24T17:03:17.346Z,4.25
2022-12-24T17:05:46.259Z,4.00
2022-12-24T17:08:14.885Z,4.80
2022-12-24T17:10:50.537Z,4.68
2022-12-24T17:13:18.049Z,4.47
2022-12-24T17:15:45.639Z,3.90
2022-12-24T17:18:13.173Z,4.82
2022-12-24T17:20:40.690Z,4.53
2022-12-24T17:23:09.535Z,5.68
2022-12-24T17:25:37.248Z,3.97
2022-12-24T17:28:05.020Z,4.65
2022-12-24T17:30:32.545Z,4.28
2022-12-24T17:33:00.210Z,5.28
2022-12-24T17:35:28.114Z,5.53
2022-12-24T17:37:55.651Z,4.85
2022-12-24T17:40:24.486Z,5.32
2022-12-24T17:42:52.524Z,5.13
2022-12-24T17:45:20.293Z,4.70
2022-12-24T17:47:47.843Z,5.50
2022-12-24T17:50:15.631Z,4.03
2022-12-24T17:52:43.230Z,4.72
2022-12-24T17:55:11.149Z,4.05
2022-12-24T17:57:40.005Z,4.00
2022-12-24T18:00:08.870Z,3.47
2022-12-24T18:02:36.706Z,4.45
2022-12-24T18:05:04.735Z,7.32
2022-12-24T18:07:32.223Z,5.47
2022-12-24T18:09:59.984Z,5.45
2022-12-24T18:12:27.530Z,3.92
2022-12-24T18:14:56.460Z,3.13
2022-12-24T18:17:23.956Z,3.17
2022-12-24T18:19:51.687Z,3.60
2022-12-24T18:22:19.252Z,3.95
2022-12-24T18:24:46.706Z,2.75
2022-12-24T18:27:14.193Z,2.15
2022-12-24T18:29:42.435Z,2.22
2022-12-24T18:32:12.860Z,2.53
2022-12-24T18:34:40.361Z,1.98
2022-12-24T18:37:07.929Z,2.05
2022-12-24T18:39:35.651Z,2.15
2022-12-24T18:42:03.199Z,2.28
2022-12-24T18:44:30.766Z,1.95
2022-12-24T18:46:58.639Z,2.40
2022-12-24T18:49:27.697Z,2.40
2022-12-24T18:51:55.343Z,2.92
2022-12-24T18:54:22.903Z,2.47
2022-12-24T18:56:51.533Z,2.90
2022-12-24T18:59:19.350Z,3.22
2022-12-24T19:01:46.939Z,3.10
2022-12-24T19:04:14.976Z,2.70
2022-12-24T19:06:50.739Z,2.65
2022-12-24T19:09:20.433Z,2.30
2022-12-24T19:11:48.187Z,2.92
2022-12-24T19:14:16.195Z,2.50
2022-12-24T19:16:43.723Z,2.60
2022-12-24T19:19:12.475Z,2.60
2022-12-24T19:21:40.034Z,2.45
2022-12-24T19:24:10.593Z,2.30
2022-12-24T19:26:38.561Z,2.58
2022-12-24T19:29:06.123Z,2.72
2022-12-24T19:31:33.785Z,3.00
2022-12-24T19:34:02.090Z,2.65
2022-12-24T19:36:30.858Z,2.83
2022-12-24T19:38:59.222Z,2.55
2022-12-24T19:41:29.406Z,2.45
2022-12-24T19:43:59.042Z,2.08
2022-12-24T19:46:28.185Z,2.28
2022-12-24T19:48:57.297Z,2.35
2022-12-24T19:51:26.108Z,2.30
2022-12-24T19:53:55.025Z,2.50
2022-12-24T19:56:24.192Z,2.60
2022-12-24T19:58:53.703Z,2.58
2022-12-24T20:01:23.180Z,2.60
2022-12-24T20:03:53.103Z,2.58
2022-12-24T20:06:22.817Z,2.45
2022-12-24T20:08:50.791Z,2.78
2022-12-24T20:11:22.195Z,2.72
2022-12-24T20:13:49.958Z,3.70
2022-12-24T20:16:22.596Z,2.38
2022-12-24T20:18:52.752Z,2.40
2022-12-24T20:21:20.846Z,2.58
2022-12-24T20:23:48.364Z,2.42
2022-12-24T20:26:18.075Z,2.42
2022-12-24T20:28:45.991Z,2.42
2022-12-24T20:31:15.918Z,2.08
2022-12-24T20:33:46.223Z,2.55
2022-12-24T20:36:15.835Z,2.92
2022-12-24T20:38:43.804Z,2.25
2022-12-24T20:41:12.244Z,4.40
2022-12-24T20:43:47.339Z,6.88
2022-12-24T20:46:19.230Z,6.47
2022-12-24T20:48:48.524Z,6.53
2022-12-24T20:51:23.671Z,5.90
2022-12-24T20:53:53.183Z,4.80
2022-12-24T20:56:20.767Z,3.30
2022-12-24T20:58:48.296Z,3.17
2022-12-24T21:01:17.896Z,3.10
2022-12-24T21:03:45.571Z,3.00
2022-12-24T21:06:15.619Z,2.97
2022-12-24T21:08:43.166Z,2.75
2022-12-24T21:11:27.369Z,3.65
2022-12-24T21:13:54.955Z,2.75
2022-12-24T21:16:22.525Z,2.63
2022-12-24T21:18:50.450Z,3.03
2022-12-24T21:21:19.388Z,3.05
2022-12-24T21:23:46.916Z,2.85
2022-12-24T21:26:14.479Z,2.25
2022-12-24T21:28:42.627Z,2.30
2022-12-24T21:31:11.133Z,2.72
2022-12-24T21:33:38.915Z,2.80
2022-12-24T21:36:06.984Z,2.38
2022-12-24T21:38:36.244Z,2.10
2022-12-24T21:41:05.762Z,2.33
2022-12-24T21:43:34.386Z,2.40
2022-12-24T21:46:02.181Z,2.72
2022-12-24T21:54:16.591Z,2.77
2022-12-24T22:07:50.239Z,2.77
2022-12-24T22:29:06.723Z,3.20
2022-12-24T22:31:34.307Z,3.70
2022-12-24T22:34:01.946Z,4.40
2022-12-24T22:36:29.582Z,4.65
2022-12-24T22:38:57.115Z,3.30
2022-12-24T22:41:24.624Z,2.47
2022-12-24T22:54:57.670Z,2.53
2022-12-24T23:08:14.335Z,2.20
2022-12-24T23:10:43.147Z,1.95
2022-12-24T23:13:28.011Z,2.10
2022-12-24T23:15:55.506Z,2.45
2022-12-24T23:18:23.017Z,2.00
2022-12-24T23:20:50.503Z,1.95
2022-12-24T23:36:48.540Z,2.50
2022-12-24T23:39:16.261Z,1.90
2022-12-24T23:41:43.861Z,1.80
2022-12-24T23:44:11.377Z,2.20
2022-12-24T23:46:38.934Z,2.20
2022-12-24T23:49:06.780Z,2.42
